createdAt,value
2023-04-26T00:14:14.143Z,10.03
2023-04-26T00:34:14.127Z,10.02
2023-04-26T00:54:14.092Z,10.02
2023-04-26T01:14:14.072Z,10.02
2023-04-26T01:34:14.097Z,10.02
2023-04-26T01:54:14.053Z,10.02
2023-04-26T02:14:14.064Z,10.02
2023-04-26T02:34:14.044Z,10.02
2023-04-26T02:54:14.070Z,10.02
2023-04-26T03:14:14.069Z,10.02
2023-04-26T03:54:14.059Z,10.02
2023-04-26T04:14:14.024Z,10.02
2023-04-26T04:34:13.908Z,10.01
2023-04-26T04:54:13.247Z,10.02
2023-04-26T05:14:14.014Z,10.01
2023-04-26T05:34:14.003Z,10.01
2023-04-26T05:54:14.042Z,10.01
2023-04-26T06:14:23.481Z,10.01
2023-04-26T06:34:14.504Z,10.01
2023-04-26T06:54:13.474Z,10.01
2023-04-26T07:14:13.208Z,10.01
2023-04-26T07:34:13.960Z,10.01
2023-04-26T07:54:13.941Z,10.01
2023-04-26T08:14:14.009Z,10.01
2023-04-26T08:34:13.965Z,10.01
2023-04-26T09:14:13.925Z,10.01
2023-04-26T09:34:13.921Z,10
2023-04-26T09:54:13.397Z,10
2023-04-26T10:14:13.943Z,10
2023-04-26T10:34:13.884Z,10
2023-04-26T10:54:13.904Z,10
2023-04-26T11:34:13.101Z,10
2023-04-26T13:54:13.800Z,9.99
2023-04-26T14:14:13.802Z,9.98
2023-04-26T14:34:13.793Z,9.98
2023-04-26T14:54:13.021Z,9.98
2023-04-26T15:14:13.770Z,9.98
2023-04-26T15:34:13.752Z,9.97
2023-04-26T15:54:13.746Z,9.97
2023-04-26T16:14:13.740Z,9.97
2023-04-26T16:34:12.952Z,9.97
2023-04-26T16:54:13.714Z,9.96
2023-04-26T17:34:12.922Z,9.96
2023-04-26T17:54:13.222Z,9.96
2023-04-26T20:14:13.624Z,9.94
2023-04-26T20:34:13.608Z,9.94
2023-04-26T20:54:13.610Z,9.94
2023-04-26T21:54:13.470Z,9.94
2023-04-26T22:14:13.587Z,9.93
2023-04-26T22:34:13.549Z,9.93
2023-04-26T22:54:13.602Z,9.93
2023-04-26T23:34:13.565Z,9.93
2023-04-26T23:54:13.552Z,9.93
